Last 24 Hours

OV-Siberia 8700'

Hourly Data | America/Los_Angeles
as of 9/3/26 7:20 PM PDT
Date & Time Temp (°F) RH (%) Dew Pt (°F) Wet Bulb (°F) Wind Dir (°) Wind Spd (mph) Wind Gust (mph) WindChill (°F) Daily Min Temp (°F) Daily Max Temp (°F)
9/3/26 - 1900 37.6 99 37.5 37.6 N | 0 0.3 1.9 37.6 35.6 40.7
9/3/26 - 1800 37.3 99 37.1 37.2 N | 0 0.4 2.8 37.4 35.6 40.7
9/3/26 - 1700 37.6 99 37.4 37.5 N | 0 0.2 2.0 38.1 35.6 40.7
9/3/26 - 1600 38.5 98 38.1 38.2 N | 0 0.1 1.3 38.4 35.6 40.7
9/3/26 - 1500 38.6 98 38.0 38.3 N | 0 0.2 1.2 38.9 35.6 40.7
9/3/26 - 1400 39.1 95 37.9 38.5 N | 0 0.2 1.4 39.6 35.6 40.7
9/3/26 - 1300 39.8 93 38.0 38.9 N | 0 0.2 1.5 40.0 35.6 40.7
9/3/26 - 1200 39.3 92 37.0 38.1 N | 0 0.2 1.4 39.4 35.6 40.1
9/3/26 - 1100 39.0 88 35.7 37.3 N | 0 0.2 1.3 38.1 35.6 39.0
9/3/26 - 1000 37.4 82 32.6 35.1 N | 0 0.2 1.3 36.8 35.6 37.4
9/3/26 - 0900 36.5 80 31.0 33.9 N | 0 0.1 1.3 36.1 35.6 36.9
9/3/26 - 0800 35.9 68 26.5 31.8 N | 0 0.2 1.3 36.1 35.6 36.9
9/3/26 - 0700 36.1 53 20.5 29.9 N | 0 0.2 1.4 36.2 35.6 36.9
9/3/26 - 0600 36.2 55 21.5 30.2 N | 0 0.2 1.3 36.1 35.6 36.9
9/3/26 - 0500 36.0 67 26.1 31.7 N | 0 0.2 1.5 35.9 35.6 36.9
9/3/26 - 0400 36.1 78 29.8 33.2 N | 0 0.1 1.3 36.3 36.0 36.9
9/3/26 - 0300 36.2 89 33.2 34.8 N | 0 0.2 1.3 36.2 36.0 36.9
9/3/26 - 0200 36.2 90 33.5 34.9 N | 0 0.2 1.4 36.3 36.2 36.9
9/3/26 - 0100 36.3 96 35.2 35.8 N | 0 0.2 1.3 36.6 36.3 36.9
9/3/26 - 0000 36.7 89 33.8 35.3 N | 0 0.2 1.3 36.7 32.5 44.2
9/2/26 - 2300 36.8 96 35.9 36.3 N | 0 0.2 1.3 36.7 32.5 44.2
9/2/26 - 2200 36.7 95 35.3 36.0 N | 0 0.2 1.5 36.8 32.5 44.2
9/2/26 - 2100 37.2 93 35.3 36.2 N | 0 0.1 1.4 37.3 32.5 44.2
9/2/26 - 2000 37.5 95 36.3 36.9 N | 0 0.2 1.4 38.0 32.5 44.2
9/2/26 - 1900 38.3 91 36.0 37.1 N | 0 0.2 1.4 39.1 32.5 44.2
Max 39.8 99 38.1 38.9 - 0.4 2.8 40.0 36.3 44.2
Avg 37.3 87 33.6 35.6 - 0.2 1.5 37.4 - -
Min 35.9 53 20.5 29.9 - 0.1 1.2 35.9 32.5 36.9